createdAt,value
2019-03-29T00:00:40.364Z,82.15
2019-03-29T00:03:46.184Z,82.74
2019-03-29T00:06:51.915Z,83.52
2019-03-29T00:09:57.640Z,83.29
2019-03-29T00:13:03.371Z,83.10
2019-03-29T00:16:09.077Z,82.74
2019-03-29T00:19:14.831Z,82.10
2019-03-29T00:22:20.608Z,82.08
2019-03-29T00:25:26.362Z,82.46
2019-03-29T00:28:32.018Z,83.10
2019-03-29T00:31:37.794Z,83.83
2019-03-29T00:34:43.541Z,83.91
2019-03-29T00:37:53.647Z,84.16
2019-03-29T00:40:58.876Z,83.51
2019-03-29T00:44:04.675Z,84.13
2019-03-29T00:47:10.451Z,84.17
2019-03-29T00:50:16.235Z,84.49
2019-03-29T00:53:21.979Z,83.86
2019-03-29T00:56:27.717Z,83.52
2019-03-29T00:59:33.473Z,83.55
2019-03-29T01:02:39.205Z,84.08
2019-03-29T01:05:45.039Z,84.26
2019-03-29T01:08:50.739Z,84.24
2019-03-29T01:11:56.448Z,84.52
2019-03-29T01:15:02.241Z,85.68
2019-03-29T01:18:08.353Z,85.54
2019-03-29T01:21:14.273Z,85.37
2019-03-29T01:24:19.949Z,85.38
2019-03-29T01:27:25.603Z,85.01
2019-03-29T01:30:31.282Z,85.94
2019-03-29T01:33:37.034Z,86.69
2019-03-29T01:36:42.746Z,86.97
2019-03-29T01:39:48.501Z,86.81
2019-03-29T01:42:54.234Z,85.77
2019-03-29T01:45:59.984Z,86.20
2019-03-29T01:49:05.627Z,85.90
2019-03-29T01:52:11.459Z,86.04
2019-03-29T01:55:17.188Z,84.85
2019-03-29T01:58:22.888Z,84.43
2019-03-29T02:01:29.111Z,83.36
2019-03-29T02:04:34.983Z,83.11
2019-03-29T02:07:40.942Z,82.60
2019-03-29T02:10:46.687Z,81.33
2019-03-29T02:13:52.376Z,81.62
2019-03-29T02:16:58.175Z,81.32
2019-03-29T02:20:03.811Z,81.91
2019-03-29T02:23:09.569Z,81.30
2019-03-29T02:26:15.240Z,82.64
2019-03-29T02:29:21.022Z,82.70
2019-03-29T02:32:26.786Z,82.86
2019-03-29T02:35:32.534Z,82.94
2019-03-29T02:38:55.079Z,83.08
2019-03-29T02:41:49.057Z,83.15
2019-03-29T02:44:54.767Z,82.72
2019-03-29T02:48:00.610Z,83.01
2019-03-29T02:51:07.499Z,83.10
2019-03-29T02:54:13.246Z,83.68
2019-03-29T02:57:18.951Z,84.28
2019-03-29T03:00:25.719Z,85.11
2019-03-29T03:03:31.419Z,85.34
2019-03-29T03:06:38.207Z,85.61
2019-03-29T03:09:43.925Z,86.21
2019-03-29T03:12:49.632Z,86.84
2019-03-29T03:15:55.360Z,87.12
2019-03-29T03:19:01.042Z,87.59
2019-03-29T03:22:06.723Z,87.47
2019-03-29T03:25:12.898Z,86.77
2019-03-29T03:28:22.114Z,86.62
2019-03-29T03:31:29.426Z,86.39
2019-03-29T03:34:35.286Z,86.55
2019-03-29T03:37:41.025Z,86.66
2019-03-29T03:40:46.766Z,87.12
2019-03-29T03:43:52.515Z,87.79
2019-03-29T03:46:58.235Z,87.97
2019-03-29T03:50:04.009Z,87.53
2019-03-29T03:53:10.281Z,86.96
2019-03-29T03:56:17.922Z,85.65
2019-03-29T03:59:25.728Z,85.02
2019-03-29T04:02:31.600Z,85.81
2019-03-29T04:05:37.367Z,86.74
2019-03-29T04:08:43.045Z,87.29
2019-03-29T04:11:48.701Z,87.24
2019-03-29T04:14:54.407Z,87.76
2019-03-29T04:18:00.103Z,88.28
2019-03-29T04:21:05.830Z,88.89
2019-03-29T04:24:11.592Z,89.40
2019-03-29T04:27:17.339Z,89.63
2019-03-29T04:30:23.049Z,90.03
2019-03-29T04:33:28.774Z,90.21
2019-03-29T04:36:34.607Z,90.33
2019-03-29T04:39:40.321Z,90.58
2019-03-29T04:42:46.124Z,90.55
2019-03-29T04:45:51.941Z,90.51
2019-03-29T04:48:57.731Z,90.42
2019-03-29T04:52:03.470Z,90.56
2019-03-29T04:55:09.577Z,89.92
2019-03-29T04:58:16.213Z,89.66
2019-03-29T05:01:22.075Z,89.95
2019-03-29T05:04:27.798Z,89.40
2019-03-29T05:07:36.798Z,89.90
2019-03-29T05:10:40.994Z,89.86
2019-03-29T05:13:46.784Z,90.02
2019-03-29T05:16:52.456Z,89.92
2019-03-29T05:19:58.232Z,90.00
2019-03-29T05:23:03.935Z,89.69
2019-03-29T05:26:09.709Z,89.50
2019-03-29T05:29:15.494Z,89.32
2019-03-29T05:32:21.266Z,88.72
2019-03-29T05:35:27.025Z,88.20
2019-03-29T05:38:32.837Z,88.37
2019-03-29T05:41:39.658Z,88.30
2019-03-29T05:44:45.391Z,88.39
2019-03-29T05:47:51.094Z,88.40
2019-03-29T05:50:56.859Z,87.74
2019-03-29T05:54:02.680Z,87.70
2019-03-29T05:57:08.347Z,87.14
2019-03-29T06:00:16.732Z,86.70
2019-03-29T06:03:22.440Z,86.98
2019-03-29T06:06:28.195Z,86.22
2019-03-29T06:09:35.103Z,86.69
2019-03-29T06:12:40.959Z,86.17
2019-03-29T06:15:46.660Z,85.35
2019-03-29T06:18:52.364Z,85.00
2019-03-29T06:21:58.145Z,84.79
2019-03-29T06:25:03.845Z,84.85
2019-03-29T06:28:09.583Z,84.22
2019-03-29T06:31:15.384Z,84.20
2019-03-29T06:34:21.048Z,83.87
2019-03-29T06:37:27.974Z,82.96
2019-03-29T06:40:33.932Z,81.81
2019-03-29T06:43:39.661Z,81.46
2019-03-29T06:46:45.371Z,80.90
2019-03-29T06:49:51.093Z,78.76
2019-03-29T06:52:56.820Z,77.86
2019-03-29T06:56:02.584Z,79.22
2019-03-29T06:59:08.321Z,78.29
2019-03-29T07:02:14.174Z,78.12
2019-03-29T07:05:19.988Z,77.62
2019-03-29T07:08:25.966Z,77.38
2019-03-29T07:11:32.963Z,76.46
2019-03-29T07:14:38.704Z,75.78
2019-03-29T07:17:44.423Z,75.06
2019-03-29T07:20:50.077Z,75.69
2019-03-29T07:23:55.868Z,75.30
2019-03-29T07:27:01.707Z,74.46
2019-03-29T07:30:11.530Z,73.69
2019-03-29T07:33:17.317Z,72.21
2019-03-29T07:36:23.026Z,71.05
2019-03-29T07:39:28.900Z,70.33
2019-03-29T07:42:34.808Z,69.84
2019-03-29T07:45:40.526Z,68.01
2019-03-29T07:48:46.292Z,67.04
2019-03-29T07:51:52.092Z,67.72
2019-03-29T07:54:57.780Z,67.63
2019-03-29T07:58:03.522Z,66.47
2019-03-29T08:01:09.274Z,68.09
2019-03-29T08:04:15.123Z,68.73
2019-03-29T08:07:27.064Z,66.07
2019-03-29T08:10:31.287Z,66.33
2019-03-29T08:13:35.566Z,64.23
2019-03-29T08:16:41.533Z,65.84
2019-03-29T08:19:47.321Z,64.78
2019-03-29T08:22:54.163Z,64.23
2019-03-29T08:25:59.836Z,63.12
2019-03-29T08:29:05.530Z,62.00
2019-03-29T08:32:11.330Z,60.34
2019-03-29T08:35:17.013Z,60.76
2019-03-29T08:38:22.736Z,60.88
2019-03-29T08:41:28.459Z,61.62
2019-03-29T08:44:34.097Z,60.12
2019-03-29T08:47:39.848Z,59.24
2019-03-29T08:50:46.609Z,60.00
2019-03-29T08:53:52.366Z,59.27
2019-03-29T08:56:57.985Z,53.13
2019-03-29T09:00:03.719Z,54.96
2019-03-29T09:03:09.438Z,54.46
2019-03-29T09:06:15.358Z,55.37
2019-03-29T09:09:21.108Z,54.48
2019-03-29T09:12:26.935Z,51.07
2019-03-29T09:15:34.769Z,52.68
2019-03-29T09:18:40.565Z,53.71
2019-03-29T09:21:46.244Z,52.32
2019-03-29T09:24:52.080Z,51.59
2019-03-29T09:27:57.853Z,50.70
2019-03-29T09:31:03.684Z,51.09
2019-03-29T09:34:09.456Z,52.58
2019-03-29T09:37:15.180Z,51.72
2019-03-29T09:40:21.077Z,52.52
2019-03-29T09:43:27.031Z,52.14
2019-03-29T09:46:32.744Z,52.66
2019-03-29T09:49:38.462Z,51.22
2019-03-29T09:52:44.177Z,51.59
2019-03-29T09:55:53.296Z,51.61
2019-03-29T09:58:57.504Z,49.43
2019-03-29T10:02:03.207Z,49.35
2019-03-29T10:05:09.298Z,49.33
2019-03-29T10:08:15.141Z,48.84
2019-03-29T10:11:22.214Z,49.03
2019-03-29T10:14:27.975Z,48.49
2019-03-29T10:17:33.850Z,47.16
2019-03-29T10:20:39.534Z,46.86
2019-03-29T10:23:45.410Z,46.95
2019-03-29T10:26:51.111Z,47.27
2019-03-29T10:29:56.779Z,48.00
2019-03-29T10:33:02.454Z,48.31
2019-03-29T10:36:08.172Z,47.41
2019-03-29T10:39:14.006Z,48.03
2019-03-29T10:42:19.682Z,47.72
2019-03-29T10:45:25.447Z,48.43
2019-03-29T10:48:31.230Z,47.75
2019-03-29T10:51:36.951Z,47.21
2019-03-29T10:54:42.618Z,47.69
2019-03-29T10:57:48.339Z,46.44
2019-03-29T11:00:54.069Z,46.97
2019-03-29T11:03:59.812Z,45.63
2019-03-29T11:07:05.588Z,47.04
2019-03-29T11:10:15.383Z,46.30
2019-03-29T11:13:21.210Z,46.49
2019-03-29T11:16:26.960Z,46.35
2019-03-29T11:19:32.624Z,45.17
2019-03-29T11:22:38.364Z,45.66
2019-03-29T11:25:44.153Z,46.11
2019-03-29T11:28:49.897Z,45.53
2019-03-29T11:31:55.580Z,45.66
2019-03-29T11:35:01.294Z,44.67
2019-03-29T11:38:07.088Z,43.45
2019-03-29T11:41:12.794Z,44.87
2019-03-29T11:44:18.501Z,44.78
2019-03-29T11:47:24.185Z,44.40
2019-03-29T11:50:29.887Z,45.03
2019-03-29T11:53:35.715Z,46.41
2019-03-29T11:56:41.384Z,45.27
2019-03-29T11:59:47.120Z,46.52
2019-03-29T12:02:52.795Z,46.37
2019-03-29T12:05:58.599Z,45.10
2019-03-29T12:09:06.052Z,45.09
2019-03-29T12:12:12.276Z,43.89
2019-03-29T12:15:19.098Z,44.60
2019-03-29T12:18:24.850Z,44.44
2019-03-29T12:21:30.541Z,44.48
2019-03-29T12:24:36.274Z,42.72
2019-03-29T12:27:42.100Z,43.37
2019-03-29T12:30:47.862Z,43.86
2019-03-29T12:33:53.692Z,42.68
2019-03-29T12:36:59.367Z,42.99
2019-03-29T12:40:05.191Z,42.46
2019-03-29T12:43:12.741Z,42.15
2019-03-29T12:46:18.621Z,42.27
2019-03-29T12:49:24.403Z,42.53
2019-03-29T12:52:30.139Z,42.09
2019-03-29T12:55:35.918Z,42.57
2019-03-29T12:58:41.578Z,41.81
2019-03-29T13:01:47.390Z,41.37
2019-03-29T13:04:53.136Z,41.15
2019-03-29T13:07:58.919Z,42.65
2019-03-29T13:11:04.680Z,42.93
2019-03-29T13:14:12.576Z,42.23
2019-03-29T13:17:18.661Z,42.40
2019-03-29T13:20:24.570Z,42.03
2019-03-29T13:23:30.406Z,41.86
2019-03-29T13:26:36.281Z,41.82
2019-03-29T13:29:41.954Z,41.40
2019-03-29T13:32:47.766Z,40.89
2019-03-29T13:35:53.729Z,41.07
2019-03-29T13:38:59.581Z,41.54
2019-03-29T13:42:05.280Z,40.53
2019-03-29T13:45:12.154Z,40.92
2019-03-29T13:48:17.885Z,41.69
2019-03-29T13:51:23.571Z,42.38
2019-03-29T13:54:29.416Z,40.90
2019-03-29T13:57:35.323Z,41.43
2019-03-29T14:00:41.075Z,40.20
2019-03-29T14:03:46.808Z,40.20
2019-03-29T14:06:52.504Z,40.11
2019-03-29T14:09:58.257Z,40.70
2019-03-29T14:13:04.048Z,40.77
2019-03-29T14:16:09.714Z,39.75
2019-03-29T14:19:15.478Z,40.86
2019-03-29T14:22:21.386Z,40.82
2019-03-29T14:25:27.095Z,41.10
2019-03-29T14:28:32.882Z,41.64
2019-03-29T14:31:38.658Z,41.41
2019-03-29T14:34:44.406Z,40.34
2019-03-29T14:37:50.116Z,40.72
2019-03-29T14:40:55.912Z,40.42
2019-03-29T14:44:01.555Z,40.98
2019-03-29T14:47:07.335Z,40.74
2019-03-29T14:50:13.297Z,40.52
2019-03-29T14:53:19.134Z,40.38
2019-03-29T14:56:24.869Z,40.16
2019-03-29T14:59:30.573Z,39.93
2019-03-29T15:02:36.375Z,40.61
2019-03-29T15:05:42.369Z,40.45
2019-03-29T15:08:49.871Z,39.89
2019-03-29T15:11:55.782Z,40.53
2019-03-29T15:15:06.327Z,40.61
2019-03-29T15:18:09.954Z,41.02
2019-03-29T15:21:15.713Z,40.65
2019-03-29T15:24:21.454Z,40.76
2019-03-29T15:27:27.221Z,41.50
2019-03-29T15:30:33.094Z,40.08
2019-03-29T15:33:38.764Z,40.81
2019-03-29T15:36:44.518Z,40.79
2019-03-29T15:39:50.403Z,41.58
2019-03-29T15:42:56.210Z,41.06
2019-03-29T15:46:01.950Z,41.10
2019-03-29T15:49:07.730Z,41.35
2019-03-29T15:52:14.723Z,42.03
2019-03-29T15:55:20.532Z,41.71
2019-03-29T15:58:26.294Z,42.01
2019-03-29T16:01:39.055Z,42.09
2019-03-29T16:04:45.999Z,41.87
2019-03-29T16:07:51.806Z,41.85
2019-03-29T16:10:57.534Z,42.40
2019-03-29T16:14:03.355Z,42.41
2019-03-29T16:17:09.020Z,42.58
2019-03-29T16:20:14.693Z,41.82
2019-03-29T16:23:20.341Z,42.38
2019-03-29T16:26:26.072Z,42.78
2019-03-29T16:29:31.824Z,42.74
2019-03-29T16:32:37.553Z,42.68
2019-03-29T16:35:43.231Z,44.25
2019-03-29T16:38:48.957Z,44.30
2019-03-29T16:41:54.728Z,46.94
2019-03-29T16:45:00.659Z,48.90
2019-03-29T16:48:06.988Z,46.90
2019-03-29T16:51:12.864Z,48.17
2019-03-29T16:54:18.580Z,50.07
2019-03-29T16:57:24.351Z,48.61
2019-03-29T17:00:30.027Z,49.51
2019-03-29T17:03:35.763Z,49.62
2019-03-29T17:06:41.429Z,49.70
2019-03-29T17:09:47.082Z,49.35
2019-03-29T17:12:52.713Z,49.79
2019-03-29T17:16:02.073Z,50.23
2019-03-29T17:19:05.817Z,50.98
2019-03-29T17:22:11.512Z,53.10
2019-03-29T17:25:17.184Z,54.15
2019-03-29T17:28:23.010Z,55.11
2019-03-29T17:31:29.686Z,54.10
2019-03-29T17:34:36.033Z,54.08
2019-03-29T17:37:41.695Z,54.93
2019-03-29T17:40:47.414Z,55.32
2019-03-29T17:43:54.101Z,55.48
2019-03-29T17:47:00.971Z,55.52
2019-03-29T17:50:07.137Z,56.61
2019-03-29T17:53:14.553Z,57.50
2019-03-29T17:56:20.301Z,58.79
2019-03-29T17:59:26.044Z,59.52
2019-03-29T18:02:31.878Z,60.51
2019-03-29T18:05:37.641Z,61.63
2019-03-29T18:08:43.368Z,62.01
2019-03-29T18:11:49.067Z,62.85
2019-03-29T18:14:54.942Z,63.67
2019-03-29T18:18:00.814Z,63.82
2019-03-29T18:21:06.588Z,63.72
2019-03-29T18:24:12.414Z,64.84
2019-03-29T18:27:18.068Z,64.74
2019-03-29T18:30:38.094Z,65.67
2019-03-29T18:33:44.262Z,66.29
2019-03-29T18:36:50.653Z,67.54
2019-03-29T18:39:56.782Z,67.79
2019-03-29T18:43:02.460Z,68.51
2019-03-29T18:46:08.161Z,69.01
2019-03-29T18:49:13.934Z,69.83
2019-03-29T18:52:20.088Z,70.35
2019-03-29T18:55:26.251Z,70.77
2019-03-29T18:58:31.982Z,71.48
2019-03-29T19:01:37.712Z,71.81
2019-03-29T19:04:43.483Z,71.18
2019-03-29T19:07:49.293Z,71.86
2019-03-29T19:10:55.004Z,71.81
2019-03-29T19:14:00.795Z,72.67
2019-03-29T19:17:06.483Z,73.44
2019-03-29T19:20:26.213Z,73.91
2019-03-29T19:23:19.724Z,74.43
2019-03-29T19:26:25.458Z,74.02
2019-03-29T19:29:31.165Z,74.27
2019-03-29T19:32:36.949Z,74.59
2019-03-29T19:35:42.700Z,75.14
2019-03-29T19:38:48.558Z,75.69
2019-03-29T19:41:55.265Z,75.96
2019-03-29T19:45:01.026Z,76.55
2019-03-29T19:48:06.916Z,77.02
2019-03-29T19:51:12.611Z,77.20
2019-03-29T19:54:18.292Z,78.00
2019-03-29T19:57:24.013Z,77.95
2019-03-29T20:00:40.882Z,78.32
2019-03-29T20:03:46.556Z,78.61
2019-03-29T20:06:52.405Z,78.82
2019-03-29T20:09:58.094Z,78.93
2019-03-29T20:13:03.948Z,79.71
2019-03-29T20:16:09.669Z,79.56
2019-03-29T20:19:15.415Z,79.05
2019-03-29T20:22:21.240Z,79.48
2019-03-29T20:25:27.585Z,79.78
2019-03-29T20:28:33.474Z,80.40
2019-03-29T20:31:39.196Z,80.90
2019-03-29T20:34:44.898Z,80.71
2019-03-29T20:37:50.601Z,81.19
2019-03-29T20:40:56.298Z,81.30
2019-03-29T20:44:02.061Z,81.69
2019-03-29T20:47:07.747Z,81.57
2019-03-29T20:50:15.183Z,81.67
2019-03-29T20:53:20.882Z,82.09
2019-03-29T20:56:28.881Z,82.50
2019-03-29T20:59:34.063Z,83.34
2019-03-29T21:02:39.786Z,83.79
2019-03-29T21:05:45.544Z,82.38
2019-03-29T21:08:51.181Z,82.08
2019-03-29T21:11:56.902Z,82.64
2019-03-29T21:15:02.627Z,82.78
2019-03-29T21:18:08.463Z,83.53
2019-03-29T21:21:14.155Z,82.90
2019-03-29T21:24:19.934Z,83.49
2019-03-29T21:27:25.716Z,83.24
2019-03-29T21:30:31.465Z,84.14
2019-03-29T21:33:40.486Z,84.64
2019-03-29T21:36:45.630Z,84.35
2019-03-29T21:39:51.618Z,84.41
2019-03-29T21:42:57.605Z,84.65
2019-03-29T21:46:03.307Z,84.74
2019-03-29T21:49:09.089Z,85.08
2019-03-29T21:52:14.878Z,85.60
2019-03-29T21:55:20.593Z,86.38
2019-03-29T21:58:28.819Z,86.46
2019-03-29T22:01:34.500Z,86.52
2019-03-29T22:04:40.325Z,86.64
2019-03-29T22:07:46.067Z,87.02
2019-03-29T22:10:51.804Z,87.44
2019-03-29T22:13:57.496Z,87.20
2019-03-29T22:17:04.266Z,87.47
2019-03-29T22:20:10.979Z,88.49
2019-03-29T22:23:16.885Z,89.15
2019-03-29T22:26:22.611Z,89.09
2019-03-29T22:29:28.351Z,89.57
2019-03-29T22:32:34.068Z,89.73
2019-03-29T22:35:39.836Z,89.55
2019-03-29T22:38:46.614Z,88.88
2019-03-29T22:41:52.330Z,88.17
2019-03-29T22:44:58.062Z,88.20
2019-03-29T22:48:03.955Z,88.68
2019-03-29T22:51:09.626Z,88.96
2019-03-29T22:54:15.381Z,89.53
2019-03-29T22:57:21.076Z,89.77
2019-03-29T23:00:38.467Z,90.50
2019-03-29T23:03:45.784Z,91.38
2019-03-29T23:06:51.515Z,91.45
2019-03-29T23:09:57.183Z,90.97
2019-03-29T23:13:02.948Z,90.68
2019-03-29T23:16:08.813Z,91.08
2019-03-29T23:19:14.511Z,91.59
2019-03-29T23:22:20.228Z,91.18
2019-03-29T23:25:26.043Z,91.67
2019-03-29T23:28:31.711Z,91.60
2019-03-29T23:31:37.460Z,92.22
2019-03-29T23:34:43.215Z,92.52
2019-03-29T23:37:48.988Z,92.60
2019-03-29T23:40:54.688Z,92.74
2019-03-29T23:44:00.393Z,93.18
2019-03-29T23:47:06.079Z,93.70
2019-03-29T23:50:11.787Z,94.21
2019-03-29T23:53:17.430Z,94.40
2019-03-29T23:56:23.165Z,94.26
2019-03-29T23:59:28.840Z,94.17
